Time;durP1;ratioP1;P1;durP2;ratioP2;P2;SDS_P1;SDS_P2;PMS_P1;PMS_P2;Temp;Humidity;BMP_temperature;BMP_pressure;BME280_temperature;BME280_humidity;BME280_pressure;Samples;Min_cycle;Max_cycle;Signal;HPM_P1;HPM_P2
2024/01/25 00:02:09;;;;;;;31.38;5.90;;;7.80;99.50;;;;;;5061198;28;20093;-74
2024/01/25 00:04:34;;;;;;;30.73;5.30;;;7.80;97.70;;;;;;5045922;28;20119;-73
2024/01/25 00:07:00;;;;;;;28.83;5.75;;;7.80;99.90;;;;;;5029780;28;20490;-73
2024/01/25 00:09:26;;;;;;;35.50;6.53;;;7.70;99.90;;;;;;5044948;28;20033;-73
2024/01/25 00:11:52;;;;;;;38.75;7.05;;;7.60;99.90;;;;;;5032578;28;20044;-74
2024/01/25 00:14:18;;;;;;;33.13;5.78;;;7.70;99.90;;;;;;5046969;28;20172;-74
2024/01/25 00:16:43;;;;;;;33.22;6.05;;;7.60;99.90;;;;;;5028470;28;20370;-73
2024/01/25 00:19:12;;;;;;;24.13;5.70;;;7.50;99.90;;;;;;5035283;28;20068;-73
2024/01/25 00:21:44;;;;;;;23.75;5.57;;;7.60;99.90;;;;;;5027746;28;20037;-73
2024/01/25 00:24:13;;;;;;;26.73;5.60;;;7.60;99.90;;;;;;5027965;28;21128;-73
2024/01/25 00:26:39;;;;;;;26.95;6.25;;;7.50;99.90;;;;;;5019416;28;20365;-74
2024/01/25 00:29:05;;;;;;;33.28;6.22;;;7.50;99.90;;;;;;5027138;28;20055;-73
2024/01/25 00:31:31;;;;;;;31.20;5.80;;;7.60;99.90;;;;;;5026175;28;20047;-74
2024/01/25 00:34:01;;;;;;;34.42;6.80;;;7.60;99.90;;;;;;5008754;28;20047;-73
2024/01/25 00:36:27;;;;;;;28.95;5.75;;;7.60;99.90;;;;;;5028329;28;20530;-74
2024/01/25 00:38:53;;;;;;;31.05;6.60;;;7.50;99.90;;;;;;5011856;28;20483;-74
2024/01/25 00:41:20;;;;;;;29.52;5.78;;;7.40;99.90;;;;;;5027522;28;20040;-74
2024/01/25 00:43:46;;;;;;;32.35;7.30;;;7.40;99.90;;;;;;5024312;28;20040;-73
2024/01/25 00:46:12;;;;;;;30.45;6.22;;;7.40;99.90;;;;;;5028737;28;20099;-74
2024/01/25 00:48:42;;;;;;;25.38;5.60;;;7.40;99.90;;;;;;5026789;28;20045;-73
2024/01/25 00:51:11;;;;;;;34.13;6.35;;;7.40;99.90;;;;;;5024257;28;20048;-74
2024/01/25 00:53:37;;;;;;;31.60;6.65;;;7.40;99.90;;;;;;5023077;28;20046;-74
2024/01/25 00:56:04;;;;;;;28.90;6.20;;;7.30;99.90;;;;;;5024579;28;20045;-74
2024/01/25 00:58:30;;;;;;;23.95;5.13;;;7.10;99.90;;;;;;5026706;28;20686;-74
2024/01/25 01:00:56;;;;;;;30.15;5.63;;;7.10;99.90;;;;;;5016466;28;20037;-74
2024/01/25 01:03:22;;;;;;;23.92;5.53;;;7.20;99.90;;;;;;5013508;28;20516;-73
2024/01/25 01:05:48;;;;;;;29.40;6.25;;;7.20;99.90;;;;;;5030887;28;20354;-74
2024/01/25 01:08:14;;;;;;;29.25;5.90;;;7.10;99.90;;;;;;5028451;28;20044;-74
2024/01/25 01:10:40;;;;;;;35.20;6.78;;;7.00;99.90;;;;;;5026040;28;20041;-74
2024/01/25 01:13:06;;;;;;;30.25;6.22;;;7.00;1.00;;;;;;5026395;28;20045;-74
2024/01/25 01:15:31;;;;;;;32.03;5.55;;;7.00;1.00;;;;;;5024017;28;20680;-74
2024/01/25 01:17:57;;;;;;;29.48;6.03;;;6.90;1.00;;;;;;5011402;28;20105;-74
2024/01/25 01:20:23;;;;;;;31.85;6.38;;;6.90;1.00;;;;;;5023828;28;20041;-73
2024/01/25 01:22:50;;;;;;;24.23;5.07;;;6.80;1.00;;;;;;5027645;28;20093;-74
2024/01/25 01:25:16;;;;;;;28.65;6.15;;;6.90;1.00;;;;;;5027885;28;20033;-74
2024/01/25 01:27:42;;;;;;;36.55;6.50;;;6.90;1.00;;;;;;5046976;28;20732;-74
2024/01/25 01:30:09;;;;;;;28.33;6.25;;;6.80;18.10;;;;;;5050098;28;20079;-74
2024/01/25 01:32:34;;;;;;;29.73;5.68;;;6.80;46.90;;;;;;5047642;28;20963;-74
2024/01/25 01:35:00;;;;;;;26.52;6.28;;;6.80;96.30;;;;;;5046378;28;20036;-74
2024/01/25 01:37:26;;;;;;;31.30;6.30;;;6.70;44.90;;;;;;5061987;28;20319;-74
2024/01/25 01:39:52;;;;;;;30.80;6.13;;;6.70;99.90;;;;;;5031667;28;20037;-74
2024/01/25 01:42:22;;;;;;;29.67;5.57;;;6.60;98.80;;;;;;5040399;28;20044;-74
2024/01/25 01:44:51;;;;;;;27.08;6.53;;;6.70;99.90;;;;;;5044043;28;20036;-74
2024/01/25 01:47:17;;;;;;;25.58;5.38;;;6.70;99.90;;;;;;5059412;28;20037;-74
2024/01/25 01:49:43;;;;;;;25.83;6.05;;;6.70;99.90;;;;;;5043394;28;20648;-73
2024/01/25 01:52:10;;;;;;;34.35;6.70;;;6.60;99.90;;;;;;5043993;28;20102;-74
2024/01/25 01:54:37;;;;;;;29.23;5.68;;;6.60;99.90;;;;;;5026447;28;20044;-74
2024/01/25 01:57:03;;;;;;;25.85;5.70;;;6.50;99.90;;;;;;5043622;28;20067;-73
2024/01/25 01:59:30;;;;;;;28.23;6.40;;;6.50;99.90;;;;;;5041504;28;20048;-74
2024/01/25 02:01:56;;;;;;;25.60;5.65;;;6.50;99.90;;;;;;5028521;28;20090;-74
2024/01/25 02:04:22;;;;;;;33.50;7.18;;;6.50;99.90;;;;;;5046554;28;20048;-74
2024/01/25 02:06:48;;;;;;;24.02;5.57;;;6.50;99.90;;;;;;5043037;28;20052;-74
2024/01/25 02:09:14;;;;;;;25.30;5.65;;;6.40;99.90;;;;;;5062121;28;20167;-74
2024/01/25 02:11:39;;;;;;;30.95;6.57;;;6.30;99.90;;;;;;5042410;28;20154;-74
2024/01/25 02:14:10;;;;;;;26.20;6.28;;;6.30;99.90;;;;;;5042202;28;20052;-74
2024/01/25 02:16:36;;;;;;;37.38;6.50;;;6.30;99.90;;;;;;5044078;28;20040;-73
2024/01/25 02:19:02;;;;;;;32.85;7.55;;;6.30;99.90;;;;;;5033756;28;20468;-74
2024/01/25 02:21:27;;;;;;;32.00;6.10;;;6.40;99.90;;;;;;5038904;28;20125;-74
2024/01/25 02:23:53;;;;;;;27.98;6.13;;;6.40;99.90;;;;;;5040774;28;20041;-74
2024/01/25 02:26:19;;;;;;;37.45;8.02;;;6.30;99.90;;;;;;5042743;28;20056;-74
2024/01/25 02:28:44;;;;;;;27.83;5.53;;;6.20;99.90;;;;;;5025328;28;20191;-74
2024/01/25 02:31:11;;;;;;;33.17;6.88;;;6.20;99.90;;;;;;5007436;28;20041;-74
2024/01/25 02:33:36;;;;;;;31.17;5.55;;;6.10;99.90;;;;;;5021589;28;20048;-74
2024/01/25 02:36:02;;;;;;;37.58;6.57;;;6.10;99.90;;;;;;5042636;28;20045;-74
2024/01/25 02:38:28;;;;;;;28.92;6.53;;;6.10;99.90;;;;;;5024850;28;20033;-74
2024/01/25 02:40:54;;;;;;;37.22;6.75;;;6.00;99.90;;;;;;5025786;28;20040;-74
2024/01/25 02:43:20;;;;;;;38.45;7.18;;;5.90;99.90;;;;;;5020297;28;20120;-74
2024/01/25 02:45:47;;;;;;;34.60;6.68;;;5.90;99.90;;;;;;5018665;28;20045;-74
2024/01/25 02:48:13;;;;;;;30.50;6.70;;;5.90;99.90;;;;;;5022142;28;20045;-74
2024/01/25 02:50:39;;;;;;;33.80;6.55;;;5.90;99.90;;;;;;5011923;28;20391;-74
2024/01/25 02:53:05;;;;;;;31.38;5.97;;;5.80;99.90;;;;;;5023840;28;20102;-74
2024/01/25 02:55:31;;;;;;;38.97;6.97;;;5.90;99.90;;;;;;5022395;28;20037;-74
2024/01/25 02:57:57;;;;;;;39.28;7.13;;;5.90;99.90;;;;;;5005541;28;20584;-74
2024/01/25 03:00:22;;;;;;;34.63;7.15;;;6.00;99.90;;;;;;5024884;28;20290;-74
2024/01/25 03:02:48;;;;;;;32.22;6.93;;;5.90;99.90;;;;;;5024320;28;20492;-74
2024/01/25 03:05:14;;;;;;;41.65;7.78;;;5.80;99.90;;;;;;5025761;28;20516;-74
2024/01/25 03:07:39;;;;;;;42.42;7.30;;;5.90;99.90;;;;;;5008536;28;20419;-74
2024/01/25 03:10:06;;;;;;;38.03;6.88;;;5.80;99.90;;;;;;5024135;28;20040;-74
2024/01/25 03:12:31;;;;;;;35.58;7.20;;;5.90;99.90;;;;;;5026266;28;20439;-74
2024/01/25 03:14:57;;;;;;;38.60;7.85;;;6.00;99.90;;;;;;5009392;28;20049;-74
2024/01/25 03:17:23;;;;;;;26.88;6.05;;;5.90;99.90;;;;;;5025005;28;20037;-74
2024/01/25 03:19:49;;;;;;;37.67;7.95;;;5.80;99.90;;;;;;5043553;28;20136;-74
2024/01/25 03:22:15;;;;;;;38.80;7.43;;;5.80;99.90;;;;;;5021586;28;20538;-74
2024/01/25 03:24:40;;;;;;;36.88;6.68;;;5.90;99.90;;;;;;5010149;28;20539;-74
2024/01/25 03:27:12;;;;;;;43.15;8.35;;;5.80;99.90;;;;;;5037278;28;20071;-74
2024/01/25 03:29:41;;;;;;;39.80;7.25;;;5.80;99.90;;;;;;5043461;28;20047;-74
2024/01/25 03:32:06;;;;;;;38.78;6.40;;;5.80;99.90;;;;;;5041186;28;20044;-74
2024/01/25 03:34:32;;;;;;;40.95;7.28;;;5.80;99.90;;;;;;5042074;28;20403;-74
2024/01/25 03:36:58;;;;;;;35.33;7.70;;;5.80;99.90;;;;;;5059979;28;20056;-74
2024/01/25 03:39:24;;;;;;;46.20;7.95;;;5.70;99.90;;;;;;5028426;28;20169;-74
2024/01/25 03:41:50;;;;;;;37.47;7.05;;;5.60;99.90;;;;;;5059664;28;20033;-74
2024/01/25 03:44:16;;;;;;;36.75;7.90;;;5.70;99.90;;;;;;5042229;28;20041;-74
2024/01/25 03:46:42;;;;;;;41.45;8.70;;;5.70;99.90;;;;;;5041242;28;20033;-74
2024/01/25 03:49:07;;;;;;;31.38;6.57;;;5.60;99.90;;;;;;5024468;28;20089;-74
2024/01/25 03:51:33;;;;;;;34.20;6.70;;;5.50;99.90;;;;;;5041990;28;20032;-74
2024/01/25 03:53:59;;;;;;;44.13;7.68;;;5.50;99.90;;;;;;5041718;28;20036;-74
2024/01/25 03:56:26;;;;;;;34.13;6.47;;;5.50;99.90;;;;;;5042903;28;20124;-74
2024/01/25 03:58:52;;;;;;;39.35;6.95;;;5.40;99.90;;;;;;5043155;28;20064;-74
2024/01/25 04:01:21;;;;;;;36.88;7.25;;;5.50;99.90;;;;;;5040929;28;20480;-74
2024/01/25 04:03:47;;;;;;;38.97;7.32;;;5.50;99.90;;;;;;5039656;28;20106;-74
2024/01/25 04:06:12;;;;;;;39.83;7.80;;;5.50;99.90;;;;;;5025207;28;20044;-74
2024/01/25 04:08:38;;;;;;;37.33;7.22;;;5.40;99.90;;;;;;5041746;28;20036;-74
2024/01/25 04:11:04;;;;;;;35.35;7.55;;;5.50;99.90;;;;;;5043440;28;20116;-74
2024/01/25 04:13:30;;;;;;;45.80;7.70;;;5.50;99.90;;;;;;5042465;28;20446;-74
2024/01/25 04:15:55;;;;;;;35.90;7.70;;;5.50;99.90;;;;;;5039918;28;20055;-74
2024/01/25 04:18:21;;;;;;;39.83;7.80;;;5.30;99.90;;;;;;5040993;28;20121;-74
2024/01/25 04:20:47;;;;;;;42.30;6.75;;;5.40;99.90;;;;;;5041031;28;20037;-74
2024/01/25 04:23:13;;;;;;;45.63;7.68;;;5.30;99.90;;;;;;5033602;28;20033;-74
2024/01/25 04:25:42;;;;;;;41.85;8.13;;;5.30;99.90;;;;;;5037555;28;20458;-74
2024/01/25 04:28:07;;;;;;;38.15;7.30;;;5.20;99.90;;;;;;5040201;28;20044;-74
2024/01/25 04:30:33;;;;;;;38.50;7.68;;;5.20;99.90;;;;;;5037645;28;20133;-74
2024/01/25 04:32:59;;;;;;;39.47;8.70;;;5.30;99.90;;;;;;5044657;28;20443;-74
2024/01/25 04:35:27;;;;;;;37.72;7.82;;;5.30;99.90;;;;;;5039291;28;20106;-74
2024/01/25 04:37:53;;;;;;;46.75;8.30;;;5.30;99.90;;;;;;5039278;28;20391;-74
2024/01/25 04:40:19;;;;;;;39.88;7.15;;;5.40;99.90;;;;;;5040877;28;20115;-74
2024/01/25 04:42:45;;;;;;;39.47;6.65;;;5.30;99.90;;;;;;5040817;28;20120;-74
2024/01/25 04:45:11;;;;;;;42.50;7.57;;;5.30;99.90;;;;;;5040623;28;20387;-74
2024/01/25 04:47:40;;;;;;;39.75;7.30;;;5.30;99.90;;;;;;5035405;28;20048;-74
2024/01/25 04:50:06;;;;;;;40.13;6.90;;;5.30;99.90;;;;;;5042096;28;20045;-74
2024/01/25 04:52:32;;;;;;;43.65;8.15;;;5.30;99.90;;;;;;5039711;28;20032;-74
2024/01/25 04:54:57;;;;;;;39.03;6.72;;;5.30;99.90;;;;;;5044095;28;20063;-74
2024/01/25 04:57:23;;;;;;;34.33;7.18;;;5.20;99.90;;;;;;5056344;28;20037;-74
2024/01/25 04:59:52;;;;;;;37.13;7.78;;;5.10;99.90;;;;;;5058220;28;20110;-74
2024/01/25 05:02:17;;;;;;;39.70;7.47;;;5.00;99.90;;;;;;5040173;28;20069;-74
2024/01/25 05:04:43;;;;;;;41.60;7.65;;;5.10;99.90;;;;;;5041663;28;20469;-74
2024/01/25 05:07:09;;;;;;;40.80;7.95;;;5.10;99.90;;;;;;5054612;28;20041;-74
2024/01/25 05:09:35;;;;;;;37.50;7.70;;;5.10;99.90;;;;;;5021842;28;20040;-73
2024/01/25 05:12:02;;;;;;;42.95;7.80;;;5.10;99.90;;;;;;5039490;28;20551;-74
2024/01/25 05:14:27;;;;;;;46.17;8.27;;;5.20;99.90;;;;;;5040333;28;20052;-74
2024/01/25 05:16:53;;;;;;;43.92;8.77;;;5.00;99.90;;;;;;5024371;28;20072;-74
2024/01/25 05:19:22;;;;;;;39.53;7.82;;;5.00;99.90;;;;;;5039445;28;20037;-74
2024/01/25 05:21:47;;;;;;;47.28;7.95;;;5.10;99.90;;;;;;5035058;28;20045;-74
2024/01/25 05:24:13;;;;;;;44.38;6.95;;;5.10;99.90;;;;;;5039421;28;20043;-74
2024/01/25 05:26:39;;;;;;;43.05;7.53;;;5.00;99.90;;;;;;5043333;28;20522;-74
2024/01/25 05:29:05;;;;;;;50.75;7.80;;;5.00;99.90;;;;;;5062257;28;20075;-74
2024/01/25 05:31:31;;;;;;;54.75;8.23;;;5.00;99.90;;;;;;5024847;28;20032;-74
2024/01/25 05:33:56;;;;;;;47.72;8.52;;;5.00;99.90;;;;;;5046870;28;20048;-74
2024/01/25 05:36:22;;;;;;;42.55;8.07;;;5.00;99.90;;;;;;5060097;28;20045;-74
2024/01/25 05:38:48;;;;;;;39.65;7.50;;;5.00;99.90;;;;;;5057128;28;20120;-74
2024/01/25 05:41:13;;;;;;;44.25;7.93;;;5.00;99.90;;;;;;5059840;28;20471;-74
2024/01/25 05:43:39;;;;;;;41.30;7.65;;;5.00;99.90;;;;;;5045035;28;20501;-74
2024/01/25 05:46:09;;;;;;;42.53;7.75;;;5.00;99.90;;;;;;5043651;28;20064;-74
2024/01/25 05:48:35;;;;;;;49.03;7.68;;;4.80;99.90;;;;;;5044212;28;20106;-74
2024/01/25 05:51:01;;;;;;;35.13;7.30;;;4.90;99.90;;;;;;5041910;28;20387;-74
2024/01/25 05:53:26;;;;;;;56.40;8.40;;;4.80;99.90;;;;;;5041459;28;20048;-74
2024/01/25 05:55:52;;;;;;;45.42;7.63;;;4.80;99.90;;;;;;5029355;28;20105;-74
2024/01/25 05:58:18;;;;;;;52.55;7.95;;;4.90;99.90;;;;;;5043823;28;20464;-74
2024/01/25 06:00:44;;;;;;;43.42;7.20;;;4.80;99.90;;;;;;5043123;28;20032;-74
2024/01/25 06:03:09;;;;;;;46.33;8.45;;;4.80;99.90;;;;;;5044369;28;20402;-74
2024/01/25 06:05:35;;;;;;;45.45;8.57;;;4.80;99.90;;;;;;5026066;28;20359;-74
2024/01/25 06:08:01;;;;;;;45.88;7.63;;;4.80;99.90;;;;;;5057724;28;20599;-74
2024/01/25 06:10:26;;;;;;;43.10;7.65;;;4.80;99.90;;;;;;5040264;28;20572;-74
2024/01/25 06:12:52;;;;;;;44.78;7.13;;;4.80;99.90;;;;;;5044568;28;20099;-74
2024/01/25 06:15:18;;;;;;;43.38;7.18;;;4.80;99.90;;;;;;5060104;28;20037;-74
2024/01/25 06:17:44;;;;;;;42.88;8.45;;;4.70;99.90;;;;;;5042581;28;20500;-74
2024/01/25 06:20:10;;;;;;;37.97;7.18;;;4.70;99.90;;;;;;5043644;28;20300;-74
2024/01/25 06:22:36;;;;;;;50.53;8.23;;;4.50;99.90;;;;;;5017570;28;20048;-74
2024/01/25 06:25:03;;;;;;;42.30;8.15;;;4.60;99.90;;;;;;5042384;28;20036;-74
2024/01/25 06:27:29;;;;;;;52.03;9.10;;;4.60;99.90;;;;;;5037733;28;20064;-74
2024/01/25 06:29:55;;;;;;;47.85;8.10;;;4.60;99.90;;;;;;5038896;28;20052;-74
2024/01/25 06:32:21;;;;;;;47.08;8.38;;;4.50;99.90;;;;;;5055120;28;20379;-74
2024/01/25 06:34:46;;;;;;;44.85;7.97;;;4.60;99.90;;;;;;5038962;28;20044;-74
2024/01/25 06:37:15;;;;;;;40.35;7.32;;;4.60;99.90;;;;;;5032882;28;20200;-74
2024/01/25 06:39:41;;;;;;;47.13;8.63;;;4.50;99.90;;;;;;5036628;28;20060;-74
2024/01/25 06:42:07;;;;;;;58.17;8.65;;;4.60;99.90;;;;;;5037646;28;20135;-74
2024/01/25 06:44:32;;;;;;;43.83;9.40;;;4.60;99.90;;;;;;5038579;28;20580;-74
2024/01/25 06:46:58;;;;;;;55.72;8.93;;;4.60;99.90;;;;;;5035459;28;20285;-74
2024/01/25 06:49:24;;;;;;;59.47;9.38;;;4.60;99.90;;;;;;5036929;28;20051;-74
2024/01/25 06:51:50;;;;;;;53.40;8.45;;;4.60;99.90;;;;;;5023286;28;20212;-74
2024/01/25 06:54:16;;;;;;;52.92;9.15;;;4.50;99.90;;;;;;5035298;28;20095;-74
2024/01/25 06:56:42;;;;;;;44.60;8.63;;;4.50;99.90;;;;;;5054165;28;20488;-74
2024/01/25 06:59:08;;;;;;;45.13;8.13;;;4.40;99.90;;;;;;5036148;28;20040;-74
2024/01/25 07:01:34;;;;;;;50.55;9.23;;;4.50;99.90;;;;;;5035937;28;20048;-74
2024/01/25 07:03:59;;;;;;;47.38;8.85;;;4.40;99.90;;;;;;5037945;28;20041;-74
2024/01/25 07:06:26;;;;;;;45.92;8.25;;;4.30;99.90;;;;;;5037383;28;20063;-74
2024/01/25 07:08:53;;;;;;;50.60;8.57;;;4.40;99.90;;;;;;5036636;28;20033;-73
2024/01/25 07:11:19;;;;;;;49.97;8.43;;;4.40;99.90;;;;;;5038191;28;20045;-74
2024/01/25 07:13:44;;;;;;;53.88;9.80;;;4.30;99.90;;;;;;5021786;28;21135;-74
2024/01/25 07:16:10;;;;;;;52.13;8.48;;;4.30;99.90;;;;;;5035611;28;20044;-74
2024/01/25 07:18:36;;;;;;;45.17;9.07;;;4.20;99.90;;;;;;5037663;28;20579;-74
2024/01/25 07:21:02;;;;;;;35.42;8.05;;;4.20;99.90;;;;;;5036819;28;20561;-74
2024/01/25 07:23:29;;;;;;;49.60;8.02;;;4.30;99.90;;;;;;5015027;28;20076;-73
2024/01/25 07:25:55;;;;;;;50.22;8.18;;;4.30;99.90;;;;;;5036612;28;20356;-74
2024/01/25 07:28:21;;;;;;;48.13;8.07;;;4.20;99.90;;;;;;5026143;28;20295;-74
2024/01/25 07:30:50;;;;;;;49.78;8.45;;;4.20;99.90;;;;;;5006726;28;20140;-74
2024/01/25 07:33:16;;;;;;;51.50;8.80;;;4.20;99.90;;;;;;5024054;28;20106;-74
2024/01/25 07:35:45;;;;;;;51.63;9.02;;;4.30;99.90;;;;;;5039390;28;20029;-74
2024/01/25 07:38:15;;;;;;;41.63;8.73;;;4.20;99.90;;;;;;5023399;28;20064;-74
2024/01/25 07:40:41;;;;;;;47.88;8.30;;;4.20;99.90;;;;;;5023152;28;20140;-74
2024/01/25 07:43:07;;;;;;;46.03;8.50;;;4.40;99.90;;;;;;5038236;28;20148;-74
2024/01/25 07:45:33;;;;;;;56.20;8.88;;;4.30;99.90;;;;;;5005868;28;20049;-74
2024/01/25 07:47:59;;;;;;;48.67;8.02;;;4.40;99.90;;;;;;5021112;28;20584;-74
2024/01/25 07:50:25;;;;;;;44.80;8.73;;;4.40;99.90;;;;;;5021732;28;20079;-74
2024/01/25 07:52:51;;;;;;;45.65;8.43;;;4.40;99.90;;;;;;5036681;28;20048;-74
2024/01/25 07:55:17;;;;;;;57.83;8.73;;;4.50;99.90;;;;;;5003956;28;20378;-74
2024/01/25 07:57:42;;;;;;;45.80;7.95;;;4.50;99.90;;;;;;5021501;28;20077;-74
2024/01/25 08:00:09;;;;;;;49.13;8.73;;;4.60;99.90;;;;;;5022657;28;20041;-74
2024/01/25 08:02:38;;;;;;;68.85;9.73;;;4.60;99.90;;;;;;5018444;28;20075;-74
2024/01/25 08:05:05;;;;;;;47.90;9.45;;;4.60;99.90;;;;;;5021077;28;20036;-74
2024/01/25 08:07:32;;;;;;;54.75;8.88;;;4.60;99.90;;;;;;5035073;28;20044;-74
2024/01/25 08:09:58;;;;;;;52.50;8.85;;;4.60;99.90;;;;;;5006156;28;20487;-74
2024/01/25 08:12:25;;;;;;;54.63;8.73;;;4.70;99.90;;;;;;5037317;28;20053;-74
2024/01/25 08:14:51;;;;;;;43.90;8.43;;;4.70;99.90;;;;;;5025809;28;20489;-74
2024/01/25 08:17:17;;;;;;;53.13;9.35;;;4.80;99.90;;;;;;5022963;28;20041;-74
2024/01/25 08:19:43;;;;;;;54.90;9.43;;;4.90;99.90;;;;;;5022018;28;20629;-74
2024/01/25 08:22:09;;;;;;;40.13;9.23;;;4.80;99.90;;;;;;5025109;28;20044;-74
2024/01/25 08:24:36;;;;;;;62.00;10.77;;;4.80;99.90;;;;;;5023017;28;20036;-74
2024/01/25 08:27:01;;;;;;;48.92;8.48;;;5.00;99.90;;;;;;5035329;28;20080;-74
2024/01/25 08:29:27;;;;;;;48.95;8.55;;;5.00;99.90;;;;;;5057597;28;20480;-74
2024/01/25 08:31:53;;;;;;;54.53;10.18;;;5.00;99.90;;;;;;5038846;28;20488;-74
2024/01/25 08:34:21;;;;;;;48.90;8.65;;;5.00;99.90;;;;;;5041791;28;20521;-74
2024/01/25 08:36:46;;;;;;;47.83;8.73;;;5.10;99.90;;;;;;5040620;28;20132;-74
2024/01/25 08:39:12;;;;;;;39.45;8.75;;;5.10;99.90;;;;;;5056952;28;20048;-74
2024/01/25 08:41:38;;;;;;;50.53;8.90;;;5.20;99.90;;;;;;5039553;28;20041;-74
2024/01/25 08:44:04;;;;;;;51.20;9.45;;;5.30;99.90;;;;;;5039156;28;20067;-74
2024/01/25 08:46:29;;;;;;;43.38;8.02;;;5.20;99.90;;;;;;5055436;28;20043;-74
2024/01/25 08:48:55;;;;;;;56.08;8.20;;;5.20;99.90;;;;;;5056900;28;20240;-74
2024/01/25 08:51:21;;;;;;;49.20;9.00;;;5.30;99.90;;;;;;5039260;28;20558;-73
2024/01/25 08:53:47;;;;;;;46.55;8.55;;;5.30;99.90;;;;;;5038687;28;20549;-74
2024/01/25 08:56:15;;;;;;;43.47;9.48;;;5.40;99.90;;;;;;5023305;28;20053;-74
2024/01/25 08:58:41;;;;;;;42.55;9.73;;;5.40;99.90;;;;;;5023038;28;20033;-73
2024/01/25 09:01:07;;;;;;;41.40;8.48;;;5.40;99.90;;;;;;5052881;28;20039;-74
2024/01/25 09:03:33;;;;;;;44.92;8.93;;;5.40;99.90;;;;;;5039264;28;20055;-74
2024/01/25 09:06:05;;;;;;;47.53;9.30;;;5.50;99.90;;;;;;5038793;28;20443;-74
2024/01/25 09:08:31;;;;;;;48.90;8.60;;;5.40;99.90;;;;;;5038519;28;20091;-74
2024/01/25 09:10:58;;;;;;;52.40;8.65;;;5.50;99.90;;;;;;5039224;28;20053;-74
2024/01/25 09:13:24;;;;;;;44.53;8.25;;;5.60;99.90;;;;;;5057000;28;20052;-74
2024/01/25 09:15:50;;;;;;;40.45;8.45;;;5.60;99.90;;;;;;5037372;28;20400;-74
2024/01/25 09:18:16;;;;;;;38.53;8.38;;;5.60;99.90;;;;;;5039303;28;20037;-73
2024/01/25 09:20:47;;;;;;;48.45;9.10;;;5.60;99.90;;;;;;5039471;28;20040;-74
2024/01/25 09:23:16;;;;;;;38.65;8.27;;;5.70;99.90;;;;;;5047863;28;20108;-74
2024/01/25 09:25:43;;;;;;;37.75;7.88;;;5.70;99.90;;;;;;5040526;28;20067;-74
2024/01/25 09:28:11;;;;;;;44.97;8.65;;;5.80;99.90;;;;;;5028650;28;20044;-74
2024/01/25 09:30:41;;;;;;;44.10;7.85;;;5.90;99.90;;;;;;5041064;28;20496;-74
2024/01/25 09:33:07;;;;;;;47.40;8.85;;;5.90;99.90;;;;;;5040786;28;20139;-74
2024/01/25 09:35:33;;;;;;;50.42;8.48;;;6.00;99.90;;;;;;5040713;28;20047;-74
2024/01/25 09:37:59;;;;;;;48.78;8.90;;;6.00;99.90;;;;;;5039924;28;20076;-74
2024/01/25 09:40:25;;;;;;;56.92;9.32;;;5.90;99.90;;;;;;5041979;28;20079;-74
2024/01/25 09:42:52;;;;;;;37.95;7.53;;;6.00;99.90;;;;;;5045425;28;20102;-74
2024/01/25 09:45:19;;;;;;;54.58;9.75;;;6.00;99.90;;;;;;5043159;28;20036;-74
2024/01/25 09:47:45;;;;;;;40.75;8.00;;;6.10;99.90;;;;;;5024934;28;20444;-74
2024/01/25 09:50:11;;;;;;;55.90;9.25;;;6.10;99.90;;;;;;5045315;28;20453;-74
2024/01/25 09:52:38;;;;;;;46.80;9.18;;;6.10;99.90;;;;;;5041245;28;20443;-74
2024/01/25 09:55:13;;;;;;;45.95;9.50;;;6.10;99.90;;;;;;5040906;28;20086;-74
2024/01/25 09:57:41;;;;;;;;;;;6.20;99.90;;;;;;5023555;28;20043;-74
2024/01/25 10:00:11;;;;;;;46.35;9.70;;;6.30;99.90;;;;;;5040119;28;20019;-74
2024/01/25 10:02:38;;;;;;;43.80;9.27;;;6.30;99.90;;;;;;5042014;28;20096;-74
2024/01/25 10:05:04;;;;;;;44.45;8.63;;;6.30;99.90;;;;;;5040624;28;20047;-74
2024/01/25 10:07:37;;;;;;;49.92;10.25;;;6.30;99.90;;;;;;5057353;28;20040;-74
2024/01/25 10:10:05;;;;;;;48.72;8.50;;;6.30;99.90;;;;;;5040649;28;20052;-74
2024/01/25 10:12:31;;;;;;;46.92;8.68;;;6.40;99.90;;;;;;5042293;28;20036;-74
2024/01/25 10:14:57;;;;;;;38.55;8.18;;;6.30;99.90;;;;;;5041143;28;20048;-74
2024/01/25 10:17:23;;;;;;;38.25;9.15;;;6.40;99.90;;;;;;5038362;28;20040;-74
2024/01/25 10:19:49;;;;;;;41.85;8.73;;;6.40;99.90;;;;;;5057623;28;20047;-74
2024/01/25 10:22:14;;;;;;;37.55;7.47;;;6.40;99.90;;;;;;5039684;28;21011;-74
2024/01/25 10:24:40;;;;;;;34.97;8.00;;;6.30;99.90;;;;;;5036091;28;20472;-74
2024/01/25 10:27:10;;;;;;;42.40;7.95;;;6.40;99.90;;;;;;5036933;28;20057;-74
2024/01/25 10:29:35;;;;;;;37.80;9.13;;;6.40;99.90;;;;;;5038020;28;20378;-74
2024/01/25 10:32:05;;;;;;;34.88;8.45;;;6.40;99.90;;;;;;5037117;28;20443;-74
2024/01/25 10:34:32;;;;;;;41.88;9.15;;;6.30;99.90;;;;;;5038516;28;20041;-74
2024/01/25 10:36:57;;;;;;;41.10;7.88;;;6.40;99.90;;;;;;5037722;28;20049;-74
2024/01/25 10:39:24;;;;;;;34.17;8.23;;;6.50;99.90;;;;;;5037844;28;20454;-74
2024/01/25 10:41:51;;;;;;;41.63;8.20;;;6.70;99.90;;;;;;5038435;28;20041;-74
2024/01/25 10:44:21;;;;;;;44.55;9.40;;;6.70;99.90;;;;;;5038920;28;20040;-74
2024/01/25 10:46:50;;;;;;;50.67;9.40;;;6.80;99.90;;;;;;5036880;28;20124;-74
2024/01/25 10:49:18;;;;;;;32.15;7.78;;;7.00;99.90;;;;;;5038027;28;20041;-74
2024/01/25 10:51:46;;;;;;;37.42;7.90;;;7.20;99.90;;;;;;5037335;28;20051;-74
2024/01/25 10:54:14;;;;;;;36.33;8.13;;;7.30;99.90;;;;;;5036066;28;20052;-74
2024/01/25 10:56:43;;;;;;;45.13;7.13;;;7.40;99.90;;;;;;5036438;28;20094;-74
2024/01/25 10:59:10;;;;;;;36.03;8.13;;;7.60;99.90;;;;;;5036726;28;20068;-74
2024/01/25 11:01:36;;;;;;;32.67;7.28;;;7.50;99.90;;;;;;5019837;28;20065;-74
2024/01/25 11:04:02;;;;;;;34.05;7.85;;;7.40;99.90;;;;;;5037122;28;20038;-74
2024/01/25 11:06:28;;;;;;;32.47;6.78;;;7.40;99.90;;;;;;5054046;28;20071;-74
2024/01/25 11:09:08;;;;;;;39.17;7.22;;;7.30;99.90;;;;;;5020555;28;20539;-74
2024/01/25 11:11:37;;;;;;;43.33;7.00;;;7.30;99.90;;;;;;5037594;28;20068;-74
2024/01/25 11:14:03;;;;;;;32.65;6.25;;;7.40;99.90;;;;;;5037837;28;20063;-74
2024/01/25 11:16:33;;;;;;;32.53;6.78;;;7.40;99.90;;;;;;5036716;28;20041;-74
2024/01/25 11:19:04;;;;;;;34.08;7.72;;;7.50;99.90;;;;;;5019968;28;20043;-74
2024/01/25 11:21:45;;;;;;;34.28;6.85;;;7.50;99.90;;;;;;5038396;28;20041;-74
2024/01/25 11:24:21;;;;;;;30.05;6.65;;;7.70;99.90;;;;;;5029649;28;20559;-73
2024/01/25 11:26:47;;;;;;;37.33;7.55;;;7.90;99.90;;;;;;5039532;28;20152;-74
2024/01/25 11:29:17;;;;;;;34.50;7.90;;;7.90;99.90;;;;;;5041285;28;20083;-74
2024/01/25 11:31:48;;;;;;;33.63;7.45;;;8.00;99.90;;;;;;5037095;28;20051;-74
2024/01/25 11:34:17;;;;;;;31.13;6.78;;;8.00;99.90;;;;;;5041761;28;20062;-74
2024/01/25 11:36:44;;;;;;;39.22;6.07;;;7.90;99.90;;;;;;5054649;28;20135;-74
2024/01/25 11:39:11;;;;;;;31.52;6.93;;;7.90;99.90;;;;;;5023791;28;20051;-74
2024/01/25 11:41:37;;;;;;;32.70;7.40;;;7.90;99.90;;;;;;5039869;28;20043;-74
2024/01/25 11:44:04;;;;;;;34.95;6.80;;;7.90;99.90;;;;;;5040776;28;20490;-74
2024/01/25 11:46:31;;;;;;;43.78;7.57;;;7.90;99.90;;;;;;5023284;28;20113;-74
2024/01/25 11:48:58;;;;;;;26.33;6.95;;;8.00;99.90;;;;;;5043571;28;20044;-74
2024/01/25 11:51:25;;;;;;;29.23;7.78;;;8.10;99.90;;;;;;5044895;28;20051;-74
2024/01/25 11:53:50;;;;;;;29.42;6.20;;;8.10;99.90;;;;;;5041237;28;20071;-74
2024/01/25 11:56:24;;;;;;;35.05;7.15;;;8.10;99.90;;;;;;5044729;28;20562;-74
2024/01/25 11:58:50;;;;;;;33.92;6.30;;;8.20;99.90;;;;;;5043599;28;20052;-73
2024/01/25 12:01:18;;;;;;;27.73;6.80;;;8.40;99.90;;;;;;5057571;28;21040;-74
2024/01/25 12:03:44;;;;;;;34.38;7.80;;;8.50;99.90;;;;;;5043450;28;20043;-74
2024/01/25 12:06:09;;;;;;;31.02;6.68;;;8.50;99.90;;;;;;5057664;28;20028;-73
2024/01/25 12:08:35;;;;;;;30.63;7.13;;;8.60;99.90;;;;;;5058136;28;20055;-74
2024/01/25 12:11:08;;;;;;;30.95;7.60;;;8.50;99.90;;;;;;5042135;28;20514;-74
2024/01/25 12:13:35;;;;;;;26.65;6.32;;;8.40;99.90;;;;;;5043002;28;20252;-74
2024/01/25 12:16:03;;;;;;;34.20;7.40;;;8.50;99.90;;;;;;5041066;28;20786;-74
2024/01/25 12:18:30;;;;;;;30.48;6.68;;;8.40;99.90;;;;;;5043341;28;20507;-74
2024/01/25 12:20:59;;;;;;;36.78;6.88;;;8.40;99.90;;;;;;5044499;28;20123;-74
2024/01/25 12:23:34;;;;;;;32.53;7.45;;;8.40;99.90;;;;;;5042623;28;20032;-74
2024/01/25 12:26:01;;;;;;;;;;;8.50;99.90;;;;;;5037143;28;20053;-74
2024/01/25 12:28:28;;;;;;;32.70;6.88;;;8.60;99.90;;;;;;5045284;28;19920;-74
2024/01/25 12:30:57;;;;;;;31.90;6.40;;;8.60;99.90;;;;;;5042766;28;20419;-74
2024/01/25 12:33:23;;;;;;;27.80;6.63;;;8.60;99.90;;;;;;5041959;28;20037;-74
2024/01/25 12:35:48;;;;;;;29.67;7.30;;;8.60;99.90;;;;;;5043391;28;21056;-74
2024/01/25 12:38:14;;;;;;;36.30;8.40;;;8.70;99.90;;;;;;5040539;28;20044;-74
2024/01/25 12:40:43;;;;;;;25.58;6.32;;;8.60;99.90;;;;;;5059267;28;20040;-73
2024/01/25 12:43:09;;;;;;;34.85;7.55;;;8.50;99.90;;;;;;5025867;28;20048;-74
2024/01/25 12:45:34;;;;;;;32.97;6.55;;;8.60;99.90;;;;;;5042224;28;20411;-74